Time;durP1;ratioP1;P1;durP2;ratioP2;P2;SDS_P1;SDS_P2;PMS_P1;PMS_P2;Temp;Humidity;BMP_temperature;BMP_pressure;BME280_temperature;BME280_humidity;BME280_pressure;Samples;Min_cycle;Max_cycle;Signal;HPM_P1;HPM_P2
2024/02/03 00:00:19;;;;;;;1999.90;999.90;;;;;;;0.32;74.63;97162.72;5113565;28;20489;-65
2024/02/03 00:02:46;;;;;;;1999.90;999.90;;;;;;;0.30;74.58;97159.28;5113570;28;20043;-63
2024/02/03 00:05:13;;;;;;;1999.90;999.90;;;;;;;0.31;74.60;97155.84;5113344;28;20413;-64
2024/02/03 00:07:40;;;;;;;1999.90;999.90;;;;;;;0.31;74.49;97161.00;5113450;28;20043;-63
2024/02/03 00:10:09;;;;;;;1999.90;999.90;;;;;;;0.33;74.40;97160.16;5113711;28;20092;-66
2024/02/03 00:12:36;;;;;;;1999.90;999.90;;;;;;;0.26;74.80;97158.38;5113398;28;20052;-64
2024/02/03 00:15:04;;;;;;;1999.90;999.90;;;;;;;0.21;76.76;97157.47;5113391;28;20572;-64
2024/02/03 00:17:31;;;;;;;1999.90;999.90;;;;;;;0.23;76.83;97159.19;5113455;28;20405;-66
2024/02/03 00:19:58;;;;;;;1999.90;999.90;;;;;;;0.22;76.49;97159.16;5113299;28;20547;-66
2024/02/03 00:22:25;;;;;;;1999.90;999.90;;;;;;;0.20;76.94;97150.56;5113232;28;20135;-68
2024/02/03 00:24:53;;;;;;;1999.90;999.90;;;;;;;0.19;76.94;97154.84;5113506;28;20058;-64
2024/02/03 00:27:21;;;;;;;1999.90;999.90;;;;;;;0.14;77.46;97153.03;5112883;28;20489;-68
2024/02/03 00:29:48;;;;;;;1999.90;999.90;;;;;;;0.12;77.23;97151.31;5113317;28;20047;-66
2024/02/03 00:32:16;;;;;;;1999.90;999.90;;;;;;;0.18;77.34;97154.84;5113099;28;20082;-65
2024/02/03 00:34:44;;;;;;;1999.90;999.90;;;;;;;0.21;77.24;97160.03;5113168;28;20097;-67
2024/02/03 00:37:11;;;;;;;1999.90;999.90;;;;;;;0.24;76.95;97160.91;5113181;28;20131;-67
2024/02/03 00:39:42;;;;;;;1999.90;999.90;;;;;;;0.27;76.88;97157.50;5113055;28;20101;-66
2024/02/03 00:42:09;;;;;;;1999.90;999.90;;;;;;;0.26;76.71;97160.94;5115360;28;20048;-68
2024/02/03 00:44:38;;;;;;;1999.90;999.90;;;;;;;0.24;76.69;97155.75;5117177;28;20132;-64
2024/02/03 00:47:06;;;;;;;1999.90;999.90;;;;;;;0.18;76.68;97152.25;5116974;28;20044;-64
2024/02/03 00:49:33;;;;;;;1999.90;999.90;;;;;;;0.09;77.00;97156.44;5116990;28;20100;-66
2024/02/03 00:52:00;;;;;;;1999.90;999.90;;;;;;;0.10;77.16;97155.59;5116909;28;20097;-65
2024/02/03 00:54:27;;;;;;;1999.90;999.90;;;;;;;0.09;77.64;97153.00;5116947;28;20089;-64
2024/02/03 00:56:54;;;;;;;1999.90;999.90;;;;;;;0.09;77.39;97145.28;5117063;28;20070;-64
2024/02/03 00:59:21;;;;;;;1999.90;999.90;;;;;;;0.11;77.46;97149.59;5116953;28;20100;-68
2024/02/03 01:01:50;;;;;;;1999.90;999.90;;;;;;;0.12;77.42;97141.03;5116746;28;20096;-68
2024/02/03 01:04:17;;;;;;;1999.90;999.90;;;;;;;0.07;77.53;97139.25;5116842;28;20135;-67
2024/02/03 01:06:44;;;;;;;1999.90;999.90;;;;;;;0.11;77.97;97143.59;5116577;28;20047;-67
2024/02/03 01:09:11;;;;;;;1999.90;999.90;;;;;;;0.14;78.19;97135.03;5116544;28;20051;-61
2024/02/03 01:11:38;;;;;;;1999.90;999.90;;;;;;;0.10;78.03;97136.72;5116489;28;20096;-62
2024/02/03 01:14:05;;;;;;;1999.90;999.90;;;;;;;0.05;77.68;97128.94;5116508;28;20060;-65
2024/02/03 01:16:32;;;;;;;1999.90;999.90;;;;;;;0.01;77.70;97132.31;5116457;28;20048;-67
2024/02/03 01:19:01;;;;;;;1999.90;999.90;;;;;;;-0.01;78.08;97128.84;5116564;28;20052;-63
2024/02/03 01:21:28;;;;;;;1999.90;999.90;;;;;;;-0.06;77.72;97133.09;5116407;28;20435;-64
2024/02/03 01:23:56;;;;;;;1999.90;999.90;;;;;;;-0.18;77.76;97138.91;5116370;28;20055;-69
2024/02/03 01:26:23;;;;;;;1999.90;999.90;;;;;;;-0.26;78.23;97133.66;5116040;28;20074;-66
2024/02/03 01:28:51;;;;;;;1999.90;999.90;;;;;;;-0.28;78.37;97136.22;5116188;28;20126;-66
2024/02/03 01:31:18;;;;;;;1999.90;999.90;;;;;;;-0.29;78.80;97124.19;5116373;28;20051;-64
2024/02/03 01:33:45;;;;;;;1999.90;999.90;;;;;;;-0.30;78.87;97131.88;5116338;28;20054;-66
2024/02/03 01:36:14;;;;;;;1999.90;999.90;;;;;;;-0.35;78.93;97133.50;5116325;28;20071;-63
2024/02/03 01:38:47;;;;;;;1999.90;999.90;;;;;;;-0.50;78.98;97124.72;5116145;28;20210;-63
2024/02/03 01:41:14;;;;;;;1999.90;999.90;;;;;;;-0.52;79.49;97119.56;5115998;28;20049;-62
2024/02/03 01:43:41;;;;;;;1999.90;999.90;;;;;;;-0.51;79.06;97121.28;5116028;28;20043;-67
2024/02/03 01:46:09;;;;;;;1999.90;999.90;;;;;;;-0.58;78.92;97111.75;5115834;28;20409;-64
2024/02/03 01:48:36;;;;;;;1999.90;999.90;;;;;;;-0.60;78.91;97117.72;5116293;28;20048;-63
2024/02/03 01:51:04;;;;;;;1999.90;999.90;;;;;;;-0.66;79.00;97119.34;5116030;28;20401;-65
2024/02/03 01:53:33;;;;;;;1999.90;999.90;;;;;;;-0.74;78.56;97115.81;5115185;28;20086;-64
2024/02/03 01:56:01;;;;;;;1999.90;999.90;;;;;;;-0.77;78.52;97111.47;5115808;28;20135;-64
2024/02/03 01:58:28;;;;;;;1999.90;999.90;;;;;;;-0.81;79.06;97114.81;5115671;28;20055;-63
2024/02/03 02:00:56;;;;;;;1999.90;999.90;;;;;;;-0.85;78.87;97105.34;5115570;28;20123;-66
2024/02/03 02:03:23;;;;;;;1999.90;999.90;;;;;;;-0.92;78.83;97104.38;5115650;28;20086;-68
2024/02/03 02:05:50;;;;;;;1999.90;999.90;;;;;;;-0.95;78.38;97093.19;5115862;28;20051;-67
2024/02/03 02:08:19;;;;;;;1999.90;999.90;;;;;;;-1.08;78.73;97104.97;5115365;28;20489;-68
2024/02/03 02:10:48;;;;;;;1999.90;999.90;;;;;;;-1.05;78.97;97105.88;5115574;28;20044;-67
2024/02/03 02:13:15;;;;;;;1999.90;999.90;;;;;;;-1.08;78.72;97105.81;5115364;28;20058;-67
2024/02/03 02:15:42;;;;;;;1999.90;999.90;;;;;;;-1.21;79.01;97112.44;5115263;28;20490;-65
2024/02/03 02:18:09;;;;;;;1999.90;999.90;;;;;;;-1.28;79.20;97103.78;5115194;28;20490;-67
2024/02/03 02:20:38;;;;;;;1999.90;999.90;;;;;;;-1.30;79.19;97102.88;5115098;28;20047;-67
2024/02/03 02:23:05;;;;;;;1999.90;999.90;;;;;;;-1.32;79.11;97093.41;5115121;28;20043;-66
2024/02/03 02:25:32;;;;;;;1999.90;999.90;;;;;;;-1.47;79.25;97097.44;5115318;28;20097;-69
2024/02/03 02:27:59;;;;;;;1999.90;999.90;;;;;;;-1.55;79.56;97104.13;5114982;28;20393;-67
2024/02/03 02:30:26;;;;;;;1999.90;999.90;;;;;;;-1.65;79.81;97100.53;5115071;28;20436;-67
2024/02/03 02:32:54;;;;;;;1999.90;999.90;;;;;;;-1.58;79.63;97096.34;5114771;28;20077;-64
2024/02/03 02:35:21;;;;;;;1999.90;999.90;;;;;;;-1.55;79.40;97098.97;5114915;28;20051;-65
2024/02/03 02:37:51;;;;;;;1999.90;999.90;;;;;;;-1.57;79.35;97098.94;5114885;28;20050;-66
2024/02/03 02:40:18;;;;;;;1999.90;999.90;;;;;;;-1.57;79.11;97093.81;5114964;28;20048;-66
2024/02/03 02:42:45;;;;;;;1999.90;999.90;;;;;;;-1.59;78.54;97097.19;5115080;28;20580;-65
2024/02/03 02:45:12;;;;;;;1999.90;999.90;;;;;;;-1.58;78.81;97088.66;5114788;28;20077;-65
2024/02/03 02:47:39;;;;;;;1999.90;999.90;;;;;;;-1.62;79.10;97090.31;5115065;28;20096;-64
2024/02/03 02:50:08;;;;;;;1999.90;999.90;;;;;;;-1.70;79.67;97089.28;5114751;28;20047;-64
2024/02/03 02:52:35;;;;;;;1999.90;999.90;;;;;;;-1.73;80.70;97095.22;5114556;28;20485;-65
2024/02/03 02:55:03;;;;;;;1999.90;999.90;;;;;;;-1.83;81.31;97088.19;5114525;28;20102;-65
2024/02/03 02:57:30;;;;;;;1999.90;999.90;;;;;;;-1.83;82.10;97090.75;5114802;28;20152;-65
2024/02/03 02:59:57;;;;;;;1999.90;999.90;;;;;;;-1.76;82.35;97091.72;5114524;28;20047;-65
2024/02/03 03:02:24;;;;;;;1999.90;999.90;;;;;;;-1.74;82.95;97092.63;5114648;28;20044;-64
2024/02/03 03:04:51;;;;;;;1999.90;999.90;;;;;;;-1.85;83.25;97092.41;5114591;28;20134;-65
2024/02/03 03:07:19;;;;;;;1999.90;999.90;;;;;;;-1.92;82.29;97089.72;5114399;28;20046;-66
2024/02/03 03:09:46;;;;;;;1999.90;999.90;;;;;;;-2.00;82.61;97088.72;5114350;28;20051;-67
2024/02/03 03:12:14;;;;;;;1999.90;999.90;;;;;;;-2.09;82.38;97091.06;5114685;28;20048;-63
2024/02/03 03:14:41;;;;;;;1999.90;999.90;;;;;;;-2.16;82.65;97090.09;5114344;28;20067;-66
2024/02/03 03:17:08;;;;;;;1999.90;999.90;;;;;;;-2.16;82.72;97088.38;5114036;28;20436;-65
2024/02/03 03:19:37;;;;;;;1999.90;999.90;;;;;;;-2.08;82.23;97090.25;5114419;28;20090;-64
2024/02/03 03:22:05;;;;;;;1999.90;999.90;;;;;;;-2.04;81.98;97090.34;5114036;28;20446;-64
2024/02/03 03:24:32;;;;;;;1999.90;999.90;;;;;;;-2.03;81.38;97080.94;5114161;28;20059;-65
2024/02/03 03:27:00;;;;;;;1999.90;999.90;;;;;;;-1.98;81.26;97086.19;5113832;28;20087;-65
2024/02/03 03:29:28;;;;;;;1999.90;999.90;;;;;;;-2.03;80.56;97081.81;5114109;28;20051;-65
2024/02/03 03:31:55;;;;;;;1999.90;999.90;;;;;;;-2.07;80.59;97084.28;5114013;28;20075;-65
2024/02/03 03:34:22;;;;;;;1999.90;999.90;;;;;;;-2.13;80.08;97082.47;5114004;28;20566;-63
2024/02/03 03:36:49;;;;;;;1999.90;999.90;;;;;;;-2.25;80.22;97079.63;5113971;28;20044;-63
2024/02/03 03:39:16;;;;;;;1999.90;999.90;;;;;;;-2.26;79.82;97083.88;5113739;28;20374;-65
2024/02/03 03:41:43;;;;;;;1999.90;999.90;;;;;;;-2.29;79.72;97076.13;5113764;28;20125;-66
2024/02/03 03:44:10;;;;;;;1999.90;999.90;;;;;;;-2.28;80.32;97085.56;5113830;28;20048;-65
2024/02/03 03:46:39;;;;;;;1999.90;999.90;;;;;;;-2.37;80.22;97075.13;5113490;28;20508;-63
2024/02/03 03:49:06;;;;;;;1999.90;999.90;;;;;;;-2.44;79.99;97072.41;5113684;28;20058;-64
2024/02/03 03:51:33;;;;;;;1999.90;999.90;;;;;;;-2.55;80.21;97067.06;5113643;28;20086;-66
2024/02/03 03:54:01;;;;;;;1999.90;999.90;;;;;;;-2.61;80.81;97060.94;5113578;28;20083;-65
2024/02/03 03:56:27;;;;;;;1999.90;999.90;;;;;;;-2.55;81.28;97059.38;5113525;28;20050;-65
2024/02/03 03:58:54;;;;;;;1999.90;999.90;;;;;;;-2.51;80.43;97067.09;5113527;28;20138;-68
2024/02/03 04:01:23;;;;;;;1999.90;999.90;;;;;;;-2.57;80.37;97052.47;5113903;28;20079;-66
2024/02/03 04:03:51;;;;;;;1999.90;999.90;;;;;;;-2.69;79.94;97048.81;5113594;28;20043;-66
2024/02/03 04:06:18;;;;;;;1999.90;999.90;;;;;;;-2.70;80.43;97051.34;5113356;28;20047;-65
2024/02/03 04:08:45;;;;;;;1999.90;999.90;;;;;;;-2.76;80.72;97044.38;5113423;28;20055;-64
2024/02/03 04:11:12;;;;;;;1999.90;999.90;;;;;;;-2.83;81.05;97043.38;5113254;28;20139;-64
2024/02/03 04:13:40;;;;;;;1999.90;999.90;;;;;;;-2.77;80.95;97041.78;5113219;28;20091;-64
2024/02/03 04:16:08;;;;;;;1999.90;999.90;;;;;;;-2.88;80.82;97036.41;5113847;28;20401;-63
2024/02/03 04:18:35;;;;;;;1999.90;999.90;;;;;;;-2.91;81.33;97034.66;5117759;28;20044;-67
2024/02/03 04:21:04;;;;;;;1999.90;999.90;;;;;;;-2.94;82.02;97043.13;5117469;28;20047;-64
2024/02/03 04:23:31;;;;;;;1999.90;999.90;;;;;;;-2.92;82.13;97030.38;5117604;28;20044;-64
2024/02/03 04:25:58;;;;;;;1999.90;999.90;;;;;;;-2.95;81.47;97037.97;5117247;28;20098;-66
2024/02/03 04:28:25;;;;;;;1999.90;999.90;;;;;;;-2.98;81.54;97035.34;5117475;28;20504;-66
2024/02/03 04:30:52;;;;;;;1999.90;999.90;;;;;;;-2.97;81.61;97039.63;5117494;28;20051;-66
2024/02/03 04:33:19;;;;;;;1999.90;999.90;;;;;;;-3.10;81.72;97034.19;5117329;28;20044;-61
2024/02/03 04:35:46;;;;;;;1999.90;999.90;;;;;;;-3.13;82.63;97028.16;5117207;28;20489;-63
2024/02/03 04:38:14;;;;;;;1999.90;999.90;;;;;;;-3.08;82.71;97030.00;5117158;28;20493;-64
2024/02/03 04:40:41;;;;;;;1999.90;999.90;;;;;;;-3.08;82.35;97034.25;5117227;28;20090;-65
2024/02/03 04:43:08;;;;;;;1999.90;999.90;;;;;;;-3.02;82.11;97047.19;5117087;28;20130;-65
2024/02/03 04:45:35;;;;;;;1999.90;999.90;;;;;;;-3.02;82.36;97048.88;5117073;28;20047;-64
2024/02/03 04:48:03;;;;;;;1999.90;999.90;;;;;;;-3.05;82.07;97037.75;5117268;28;20047;-63
2024/02/03 04:50:30;;;;;;;1999.90;999.90;;;;;;;-3.05;81.96;97039.44;5117013;28;20048;-68
2024/02/03 04:52:57;;;;;;;1999.90;999.90;;;;;;;-3.03;81.80;97031.78;5117188;28;20056;-62
2024/02/03 04:55:25;;;;;;;1999.90;999.90;;;;;;;-3.06;81.65;97033.47;5116857;28;20375;-63
2024/02/03 04:57:52;;;;;;;1999.90;999.90;;;;;;;-3.14;81.75;97039.22;5116910;28;20048;-66
2024/02/03 05:00:20;;;;;;;1999.90;999.90;;;;;;;-3.17;81.69;97038.31;5117061;28;20047;-63
2024/02/03 05:02:47;;;;;;;1999.90;999.90;;;;;;;-3.19;81.42;97036.56;5116711;28;20079;-63
2024/02/03 05:05:14;;;;;;;1999.90;999.90;;;;;;;-3.27;81.14;97038.06;5116865;28;20047;-64
2024/02/03 05:07:43;;;;;;;1999.90;999.90;;;;;;;-3.35;80.70;97037.84;5116692;28;20046;-63
2024/02/03 05:10:10;;;;;;;1999.90;999.90;;;;;;;-3.43;80.67;97037.69;5116636;28;20039;-63
2024/02/03 05:12:39;;;;;;;1999.90;999.90;;;;;;;-3.44;81.27;97039.38;5116643;28;20139;-69
2024/02/03 05:15:07;;;;;;;1999.90;999.90;;;;;;;-3.42;82.89;97029.16;5116600;28;20087;-67
2024/02/03 05:17:34;;;;;;;1999.90;999.90;;;;;;;-3.41;84.14;97027.50;5116340;28;20507;-63
2024/02/03 05:20:02;;;;;;;1999.90;999.90;;;;;;;-3.48;84.67;97037.56;5116564;28;20079;-63
2024/02/03 05:22:29;;;;;;;1999.90;999.90;;;;;;;-3.48;84.07;97027.31;5116300;28;20082;-66
2024/02/03 05:24:56;;;;;;;1999.90;999.90;;;;;;;-3.50;83.93;97033.22;5116397;28;20051;-68
2024/02/03 05:27:23;;;;;;;1999.90;999.90;;;;;;;-3.51;83.30;97028.94;5115403;28;20508;-64
2024/02/03 05:29:53;;;;;;;1999.90;999.90;;;;;;;-3.49;84.39;97029.84;5115550;28;20040;-65
2024/02/03 05:32:20;;;;;;;1999.90;999.90;;;;;;;-3.51;83.62;97031.50;5116276;28;20092;-65
2024/02/03 05:34:47;;;;;;;1999.90;999.90;;;;;;;-3.52;84.18;97019.53;5116200;28;20054;-67
2024/02/03 05:37:15;;;;;;;1999.90;999.90;;;;;;;-3.47;84.03;97020.50;5116046;28;20100;-64
2024/02/03 05:39:44;;;;;;;1999.90;999.90;;;;;;;-3.38;83.64;97022.41;5115948;28;20090;-64
2024/02/03 05:42:11;;;;;;;1999.90;999.90;;;;;;;-3.33;82.52;97020.84;5116015;28;20127;-69
2024/02/03 05:44:39;;;;;;;1999.90;999.90;;;;;;;-3.30;81.88;97023.50;5115963;28;20044;-66
2024/02/03 05:47:08;;;;;;;1999.90;999.90;;;;;;;-3.40;81.99;97017.28;5115865;28;20485;-67
2024/02/03 05:49:36;;;;;;;1999.90;999.90;;;;;;;-3.45;82.37;97024.84;5115979;28;20516;-67
2024/02/03 05:52:04;;;;;;;1999.90;999.90;;;;;;;-3.38;82.52;97022.41;5116276;28;20455;-68
2024/02/03 05:54:31;;;;;;;1999.90;999.90;;;;;;;-3.35;82.38;97019.94;5115743;28;20052;-66
2024/02/03 05:56:58;;;;;;;1999.90;999.90;;;;;;;-3.36;82.04;97024.22;5115903;28;20122;-68
2024/02/03 05:59:26;;;;;;;1999.90;999.90;;;;;;;-3.42;83.59;97024.06;5115601;28;20056;-67
2024/02/03 06:01:54;;;;;;;1999.90;999.90;;;;;;;-3.37;84.01;97040.38;5115646;28;20501;-65
2024/02/03 06:04:23;;;;;;;1999.90;999.90;;;;;;;-3.33;83.68;97026.84;5115686;28;20048;-67
2024/02/03 06:06:52;;;;;;;1999.90;999.90;;;;;;;-3.23;83.23;97029.59;5115548;28;20106;-67
2024/02/03 06:09:20;;;;;;;1999.90;999.90;;;;;;;-3.23;83.52;97021.94;5115496;28;20401;-64
2024/02/03 06:11:47;;;;;;;1999.90;999.90;;;;;;;-3.01;84.05;97022.47;5115582;28;20039;-65
2024/02/03 06:14:15;;;;;;;1999.90;999.90;;;;;;;-2.02;84.57;97036.50;5115206;28;20062;-65
2024/02/03 06:16:42;;;;;;;1999.90;999.90;;;;;;;-0.57;80.02;97045.81;5115253;28;20047;-67
2024/02/03 06:19:10;;;;;;;1999.90;999.90;;;;;;;0.89;70.38;97051.72;5115320;28;20068;-65
2024/02/03 06:21:38;;;;;;;1999.90;999.90;;;;;;;2.37;63.99;97064.63;5115253;28;20389;-63
2024/02/03 06:24:06;;;;;;;1999.90;999.90;;;;;;;3.87;59.51;97065.50;5115161;28;20104;-63
2024/02/03 06:26:34;;;;;;;1999.90;999.90;;;;;;;5.20;55.35;97038.84;5114973;28;20126;-63
2024/02/03 06:29:02;;;;;;;1999.90;999.90;;;;;;;6.47;51.63;97034.91;5115009;28;20482;-65
2024/02/03 06:31:30;;;;;;;1999.90;999.90;;;;;;;7.59;47.53;97041.81;5114988;28;20552;-67
2024/02/03 06:33:57;;;;;;;1999.90;999.90;;;;;;;8.68;45.52;97033.63;5114725;28;20503;-66
2024/02/03 06:36:24;;;;;;;1999.90;999.90;;;;;;;9.73;41.96;97039.75;5114870;28;20047;-63
2024/02/03 06:38:53;;;;;;;1999.90;999.90;;;;;;;10.45;40.46;97036.94;5114672;28;20050;-67
2024/02/03 06:41:20;;;;;;;1999.90;999.90;;;;;;;11.18;38.56;97031.25;5114841;28;20047;-66
2024/02/03 06:43:47;;;;;;;1999.90;999.90;;;;;;;11.87;36.99;97041.13;5114872;28;20048;-65
2024/02/03 06:46:14;;;;;;;1999.90;999.90;;;;;;;12.58;35.85;97039.50;5114879;28;20103;-66
2024/02/03 06:48:41;;;;;;;1999.90;999.90;;;;;;;13.16;35.03;97045.16;5114849;28;20122;-63
2024/02/03 06:51:09;;;;;;;1999.90;999.90;;;;;;;13.60;34.00;97038.13;5114553;28;20048;-65
2024/02/03 06:53:36;;;;;;;1999.90;999.90;;;;;;;14.13;33.87;97036.75;5114459;28;20556;-67
2024/02/03 06:56:06;;;;;;;1999.90;999.90;;;;;;;14.88;32.96;97043.06;5114679;28;20050;-67
2024/02/03 06:58:34;;;;;;;1999.90;999.90;;;;;;;15.60;31.60;97044.88;5114254;28;20047;-68
2024/02/03 07:01:01;;;;;;;1999.90;999.90;;;;;;;16.20;30.91;97045.38;5114476;28;20144;-62
2024/02/03 07:03:29;;;;;;;1999.90;999.90;;;;;;;16.82;29.58;97041.22;5114343;28;20051;-65
2024/02/03 07:05:56;;;;;;;1999.90;999.90;;;;;;;17.56;28.68;97033.53;5114331;28;20424;-60
2024/02/03 07:08:24;;;;;;;1999.90;999.90;;;;;;;17.94;28.47;97045.41;5114177;28;20097;-65
2024/02/03 07:10:52;;;;;;;1999.90;999.90;;;;;;;17.77;28.68;97042.00;5114183;28;20077;-65
2024/02/03 07:13:22;;;;;;;1999.90;999.90;;;;;;;18.25;27.92;97032.16;5114120;28;20047;-64
2024/02/03 07:15:49;;;;;;;1999.90;999.90;;;;;;;18.81;27.23;97037.50;5114051;28;20100;-64
2024/02/03 07:18:17;;;;;;;1999.90;999.90;;;;;;;18.82;27.17;97038.34;5114265;28;20052;-65
2024/02/03 07:20:44;;;;;;;1999.90;999.90;;;;;;;19.03;27.18;97044.06;5114275;28;20118;-64
2024/02/03 07:23:12;;;;;;;1999.90;999.90;;;;;;;19.50;26.48;97043.72;5114019;28;20122;-67
2024/02/03 07:25:39;;;;;;;1999.90;999.90;;;;;;;20.05;26.33;97040.97;5114251;28;20564;-63
2024/02/03 07:28:06;;;;;;;1999.90;999.90;;;;;;;20.59;25.49;97038.19;5113673;28;20509;-65
2024/02/03 07:30:36;;;;;;;1999.90;999.90;;;;;;;20.56;25.66;97041.06;5113837;28;20073;-65
2024/02/03 07:33:04;;;;;;;1999.90;999.90;;;;;;;20.29;25.95;97042.88;5113848;28;20118;-67
2024/02/03 07:35:31;;;;;;;1999.90;999.90;;;;;;;20.58;25.98;97040.00;5113812;28;20466;-66
2024/02/03 07:37:59;;;;;;;1999.90;999.90;;;;;;;20.97;25.39;97049.69;5113984;28;20047;-68
2024/02/03 07:40:26;;;;;;;1999.90;999.90;;;;;;;21.04;24.86;97042.13;5114174;28;20043;-64
2024/02/03 07:42:53;;;;;;;1999.90;999.90;;;;;;;20.13;25.94;97032.47;5113674;28;20057;-65
2024/02/03 07:45:20;;;;;;;1999.90;999.90;;;;;;;20.26;26.51;97019.19;5113729;28;20512;-65
2024/02/03 07:47:49;;;;;;;1999.90;999.90;;;;;;;21.36;25.10;97022.09;5113735;28;20054;-65
2024/02/03 07:50:17;;;;;;;1999.90;999.90;;;;;;;21.26;25.01;97021.94;5113808;28;20397;-67
2024/02/03 07:52:44;;;;;;;1999.90;999.90;;;;;;;20.08;25.29;97018.69;5113229;28;20054;-67
2024/02/03 07:55:11;;;;;;;1999.90;999.90;;;;;;;19.53;26.97;97018.78;5113509;28;20043;-64
2024/02/03 07:57:39;;;;;;;1999.90;999.90;;;;;;;19.54;27.30;97015.19;5113672;28;20050;-65
2024/02/03 08:00:07;;;;;;;1999.90;999.90;;;;;;;19.76;26.02;97011.09;5113528;28;20055;-65
2024/02/03 08:02:35;;;;;;;1999.90;999.90;;;;;;;20.11;25.17;97018.47;5113508;28;20058;-65
2024/02/03 08:05:04;;;;;;;1999.90;999.90;;;;;;;21.05;24.21;97018.09;5113474;28;20048;-67
2024/02/03 08:07:31;;;;;;;1999.90;999.90;;;;;;;21.76;22.94;97027.09;5113462;28;20134;-66
2024/02/03 08:09:58;;;;;;;1999.90;999.90;;;;;;;21.13;23.94;97016.69;5113385;28;20093;-66
2024/02/03 08:12:26;;;;;;;1999.90;999.90;;;;;;;21.78;23.53;97011.00;5113502;28;20075;-66
2024/02/03 08:14:53;;;;;;;1999.90;999.90;;;;;;;21.99;22.60;97005.00;5113540;28;20075;-67
2024/02/03 08:17:20;;;;;;;1999.90;999.90;;;;;;;21.61;23.69;97004.28;5113531;28;20062;-66
2024/02/03 08:19:47;;;;;;;1999.90;999.90;;;;;;;21.08;24.65;97017.84;5113182;28;20555;-62
2024/02/03 08:22:16;;;;;;;1999.90;999.90;;;;;;;21.02;24.81;97014.81;5113316;28;20044;-65
2024/02/03 08:24:44;;;;;;;1999.90;999.90;;;;;;;20.12;25.59;97003.38;5113356;28;20048;-66
2024/02/03 08:27:11;;;;;;;1999.90;999.90;;;;;;;18.98;27.13;97000.25;5113123;28;20051;-65
2024/02/03 08:29:38;;;;;;;1999.90;999.90;;;;;;;17.57;29.24;97005.31;5113311;28;20122;-66
2024/02/03 08:32:06;;;;;;;1999.90;999.90;;;;;;;17.08;29.67;97004.56;5113150;28;20075;-65
2024/02/03 08:34:34;;;;;;;1999.90;999.90;;;;;;;16.17;30.97;96999.72;5113262;28;20051;-66
2024/02/03 08:37:01;;;;;;;1999.90;999.90;;;;;;;14.68;33.80;96994.78;5113413;28;20516;-66
2024/02/03 08:39:30;;;;;;;1999.90;999.90;;;;;;;13.31;35.77;96990.25;5113279;28;20512;-66
2024/02/03 08:41:57;;;;;;;1999.90;999.90;;;;;;;12.42;36.20;96992.00;5113107;28;20046;-67
2024/02/03 08:44:25;;;;;;;1999.90;999.90;;;;;;;11.83;36.76;96989.72;5113455;28;20043;-67
2024/02/03 08:46:52;;;;;;;1999.90;999.90;;;;;;;11.55;37.27;96990.72;5113156;28;20048;-63
2024/02/03 08:49:19;;;;;;;1999.90;999.90;;;;;;;11.34;37.15;96979.19;5113286;28;20044;-66
2024/02/03 08:51:46;;;;;;;1999.90;999.90;;;;;;;10.94;39.19;96982.25;5113064;28;20057;-65
2024/02/03 08:54:13;;;;;;;1999.90;999.90;;;;;;;10.97;39.12;96981.31;5113152;28;20040;-65
2024/02/03 08:56:42;;;;;;;1999.90;999.90;;;;;;;10.69;39.54;96974.34;5112842;28;20432;-67
2024/02/03 08:59:09;;;;;;;1999.90;999.90;;;;;;;10.67;39.59;96973.53;5112932;28;20039;-64
2024/02/03 09:01:36;;;;;;;1999.90;999.90;;;;;;;10.44;39.29;96972.44;5113020;28;20485;-67
2024/02/03 09:04:05;;;;;;;1999.90;999.90;;;;;;;10.41;39.96;96983.84;5116368;28;20481;-67
2024/02/03 09:06:32;;;;;;;1999.90;999.90;;;;;;;10.29;39.49;96972.00;5116599;28;20050;-66
2024/02/03 09:09:01;;;;;;;1999.90;999.90;;;;;;;9.99;39.95;96975.47;5116687;28;20043;-64
2024/02/03 09:11:28;;;;;;;1999.90;999.90;;;;;;;9.78;41.06;96978.72;5116688;28;20055;-64
2024/02/03 09:13:57;;;;;;;1999.90;999.90;;;;;;;9.94;39.80;96976.50;5116618;28;20128;-67
2024/02/03 09:16:24;;;;;;;1999.90;999.90;;;;;;;10.00;40.66;96973.72;5116572;28;20070;-65
2024/02/03 09:18:51;;;;;;;1999.90;999.90;;;;;;;10.07;41.11;96971.78;5116522;28;20069;-66
2024/02/03 09:21:19;;;;;;;1999.90;999.90;;;;;;;10.13;40.37;96971.59;5116510;28;20125;-62
2024/02/03 09:23:46;;;;;;;1999.90;999.90;;;;;;;10.04;41.15;96975.34;5116442;28;20052;-66
2024/02/03 09:26:13;;;;;;;1999.90;999.90;;;;;;;10.09;40.33;96976.06;5116016;28;20416;-67
2024/02/03 09:28:41;;;;;;;1999.90;999.90;;;;;;;10.23;39.16;96959.97;5116290;28;20090;-65
2024/02/03 09:31:09;;;;;;;1999.90;999.90;;;;;;;10.48;39.08;96961.88;5116149;28;20131;-65
2024/02/03 09:33:37;;;;;;;1999.90;999.90;;;;;;;10.57;38.82;96954.66;5116175;28;20075;-67
2024/02/03 09:36:05;;;;;;;1999.90;999.90;;;;;;;10.71;39.08;96955.06;5116303;28;20051;-64
2024/02/03 09:38:33;;;;;;;1999.90;999.90;;;;;;;10.69;38.77;96942.94;5116219;28;20048;-66
2024/02/03 09:41:00;;;;;;;1999.90;999.90;;;;;;;10.87;37.57;96947.56;5116185;28;20048;-65
2024/02/03 09:43:28;;;;;;;1999.90;999.90;;;;;;;10.74;37.92;96939.28;5116106;28;20047;-63
2024/02/03 09:45:55;;;;;;;1999.90;999.90;;;;;;;10.50;38.67;96951.34;5116042;28;20047;-66
2024/02/03 09:48:24;;;;;;;1999.90;999.90;;;;;;;10.39;37.24;96946.44;5115933;28;20048;-66
2024/02/03 09:50:52;;;;;;;1999.90;999.90;;;;;;;10.43;36.85;96932.38;5115969;28;20126;-68
2024/02/03 09:53:20;;;;;;;1999.90;999.90;;;;;;;10.44;37.61;96920.13;5115772;28;20082;-66
2024/02/03 09:55:47;;;;;;;1999.90;999.90;;;;;;;10.18;36.42;96916.56;5115725;28;20051;-67
2024/02/03 09:58:14;;;;;;;1999.90;999.90;;;;;;;10.03;36.96;96912.66;5115652;28;20096;-65
2024/02/03 10:00:41;;;;;;;1999.90;999.90;;;;;;;9.97;38.76;96918.94;5115604;28;20047;-64
2024/02/03 10:03:17;;;;;;;1999.90;999.90;;;;;;;9.98;38.61;96921.50;5115570;28;20048;-65
2024/02/03 10:05:46;;;;;;;1999.90;999.90;;;;;;;10.18;37.57;96908.72;5115501;28;20048;-65
2024/02/03 10:08:13;;;;;;;1999.90;999.90;;;;;;;10.24;37.13;96895.47;5115572;28;20131;-65
2024/02/03 10:10:43;;;;;;;1999.90;999.90;;;;;;;9.85;35.71;96904.47;5115510;28;20152;-63
2024/02/03 10:13:11;;;;;;;1999.90;999.90;;;;;;;9.69;36.20;96899.69;5115420;28;20051;-67
2024/02/03 10:15:40;;;;;;;1999.90;999.90;;;;;;;9.78;37.57;96895.94;5114546;28;20444;-65
2024/02/03 10:18:08;;;;;;;1999.90;999.90;;;;;;;9.90;35.34;96893.88;5115293;28;20051;-65
2024/02/03 10:20:36;;;;;;;1999.90;999.90;;;;;;;9.73;35.41;96890.84;5115376;28;20051;-64
2024/02/03 10:23:05;;;;;;;1999.90;999.90;;;;;;;9.79;35.29;96891.59;5115289;28;20054;-69
2024/02/03 10:25:33;;;;;;;1999.90;999.90;;;;;;;9.73;35.06;96890.84;5115262;28;20055;-68
2024/02/03 10:28:03;;;;;;;1999.90;999.90;;;;;;;9.58;34.97;96886.06;5114982;28;20058;-63
2024/02/03 10:30:31;;;;;;;1999.90;999.90;;;;;;;9.49;34.69;96887.19;5115185;28;20054;-65
2024/02/03 10:33:03;;;;;;;1999.90;999.90;;;;;;;9.47;35.46;96878.53;5115035;28;20150;-68
2024/02/03 10:35:31;;;;;;;1999.90;999.90;;;;;;;9.34;35.86;96873.66;5114804;28;20109;-63
2024/02/03 10:37:59;;;;;;;1999.90;999.90;;;;;;;9.41;35.89;96873.47;5115127;28;20047;-67
2024/02/03 10:40:29;;;;;;;1999.90;999.90;;;;;;;9.53;37.57;96867.06;5114788;28;20146;-63
2024/02/03 10:42:56;;;;;;;1999.90;999.90;;;;;;;9.66;36.83;96860.56;5114959;28;20101;-65
2024/02/03 10:45:27;;;;;;;1999.90;999.90;;;;;;;9.86;37.82;96859.13;5114796;28;20547;-66
2024/02/03 10:47:55;;;;;;;;;;;;;;;10.06;36.17;96852.47;5115315;28;20093;-67
2024/02/03 10:50:25;;;;;;;1999.90;999.90;;;;;;;10.05;36.42;96848.13;5114840;28;19965;-65
2024/02/03 10:52:57;;;;;;;1999.90;999.90;;;;;;;10.11;36.88;96843.56;5114681;28;20075;-65
2024/02/03 10:55:26;;;;;;;1999.90;999.90;;;;;;;10.04;37.51;96833.34;5114515;28;20047;-64
2024/02/03 10:57:55;;;;;;;1999.90;999.90;;;;;;;10.15;36.46;96820.81;5114694;28;20096;-69